createdAt,value
2023-11-30T00:01:29.678Z,99476.91
2023-11-30T00:03:57.676Z,99476.30
2023-11-30T00:06:26.186Z,99475.77
2023-11-30T00:08:54.740Z,99475.23
2023-11-30T00:11:22.562Z,99479.70
2023-11-30T00:13:50.371Z,99475.84
2023-11-30T00:16:18.198Z,99477.34
2023-11-30T00:18:45.937Z,99475.14
2023-11-30T00:21:13.937Z,99472.06
2023-11-30T00:23:41.623Z,99469.48
2023-11-30T00:26:09.472Z,99472.36
2023-11-30T00:28:37.383Z,99464.05
2023-11-30T00:31:05.690Z,99458.72
2023-11-30T00:33:33.466Z,99461.73
2023-11-30T00:36:01.446Z,99465.55
2023-11-30T00:38:29.518Z,99463.61
2023-11-30T00:40:57.247Z,99465.05
2023-11-30T00:43:24.999Z,99468.34
2023-11-30T00:46:03.229Z,99467.79
2023-11-30T00:48:38.242Z,99466.45
2023-11-30T00:51:10.050Z,99464.54
2023-11-30T00:53:39.237Z,99460.69
2023-11-30T00:56:07.793Z,99461.64
2023-11-30T00:58:35.820Z,99459.87
2023-11-30T01:01:03.737Z,99462.45
2023-11-30T01:03:31.671Z,99462.29
2023-11-30T01:05:59.590Z,99461.23
2023-11-30T01:08:27.290Z,99460.44
2023-11-30T01:10:55.045Z,99452.90
2023-11-30T01:13:22.805Z,99452.70
2023-11-30T01:15:50.892Z,99452.98
2023-11-30T01:18:19.130Z,99451.74
2023-11-30T01:20:46.995Z,99444.24
2023-11-30T01:23:14.819Z,99441.60
2023-11-30T01:25:42.624Z,99437.39
2023-11-30T01:28:10.354Z,99437.48
2023-11-30T01:30:38.382Z,99440.21
2023-11-30T01:33:06.221Z,99440.58
2023-11-30T01:35:33.967Z,99441.38
2023-11-30T01:38:01.701Z,99445.86
2023-11-30T01:40:29.493Z,99445.39
2023-11-30T01:42:57.299Z,99441.88
2023-11-30T01:45:26.297Z,99439.00
2023-11-30T01:47:54.178Z,99438.14
2023-11-30T01:50:23.576Z,99435.41
2023-11-30T01:52:51.534Z,99434.04
2023-11-30T01:55:19.695Z,99430.30
2023-11-30T01:57:47.685Z,99428.71
2023-11-30T02:00:16.930Z,99432.66
2023-11-30T02:02:45.441Z,99425.06
2023-11-30T02:05:13.385Z,99423.46
2023-11-30T02:07:41.150Z,99419.44
2023-11-30T02:10:09.494Z,99421.52
2023-11-30T02:12:37.495Z,99421.44
2023-11-30T02:15:05.849Z,99423.39
2023-11-30T02:17:33.690Z,99420.91
2023-11-30T02:20:01.563Z,99422.63
2023-11-30T02:22:29.459Z,99421.13
2023-11-30T02:24:57.152Z,99421.22
2023-11-30T02:27:24.970Z,99421.34
2023-11-30T02:29:53.029Z,99421.48
2023-11-30T02:32:21.730Z,99421.95
2023-11-30T02:34:49.441Z,99423.16
2023-11-30T02:37:17.236Z,99418.48
2023-11-30T02:39:45.015Z,99415.95
2023-11-30T02:42:13.353Z,99419.35
2023-11-30T02:44:41.098Z,99417.81
2023-11-30T02:47:08.837Z,99417.34
2023-11-30T02:49:36.828Z,99421.14
2023-11-30T02:52:05.448Z,99424.59
2023-11-30T02:54:33.335Z,99423.05
2023-11-30T02:57:02.384Z,99423.23
2023-11-30T02:59:32.016Z,99420.14
2023-11-30T03:02:00.004Z,99407.87
2023-11-30T03:04:27.927Z,99407.02
2023-11-30T03:06:55.749Z,99403.77
2023-11-30T03:09:23.523Z,99406.98
2023-11-30T03:11:52.395Z,99410.81
2023-11-30T03:14:20.989Z,99411.10
2023-11-30T03:16:48.789Z,99415.11
2023-11-30T03:19:17.599Z,99406.91
2023-11-30T03:21:45.653Z,99399.13
2023-11-30T03:24:14.232Z,99395.56
2023-11-30T03:26:42.822Z,99396.60
2023-11-30T03:29:11.064Z,99390.70
2023-11-30T03:31:40.816Z,99392.54
2023-11-30T03:34:09.110Z,99396.76
2023-11-30T03:36:37.005Z,99396.86
2023-11-30T03:39:05.654Z,99396.73
2023-11-30T03:41:33.433Z,99394.77
2023-11-30T03:44:02.777Z,99399.95
2023-11-30T03:46:31.097Z,99401.64
2023-11-30T03:48:59.079Z,99398.58
2023-11-30T03:51:26.858Z,99397.59
2023-11-30T03:53:54.715Z,99396.81
2023-11-30T03:56:22.608Z,99395.95
2023-11-30T03:58:52.387Z,99390.27
2023-11-30T04:01:24.228Z,99390.98
2023-11-30T04:03:52.121Z,99393.00
2023-11-30T04:06:21.455Z,99392.61
2023-11-30T04:08:53.254Z,99391.18
2023-11-30T04:11:21.494Z,99389.98
2023-11-30T04:13:49.361Z,99389.84
2023-11-30T04:16:18.238Z,99389.41
2023-11-30T04:18:46.155Z,99384.30
2023-11-30T04:21:14.761Z,99388.97
2023-11-30T04:23:42.562Z,99388.13
2023-11-30T04:26:11.092Z,99384.67
2023-11-30T04:28:39.026Z,99385.00
2023-11-30T04:31:08.401Z,99382.70
2023-11-30T04:33:36.219Z,99387.78
2023-11-30T04:36:04.686Z,99384.35
2023-11-30T04:38:32.719Z,99387.20
2023-11-30T04:41:00.755Z,99386.77
2023-11-30T04:43:28.566Z,99384.86
2023-11-30T04:45:56.383Z,99382.73
2023-11-30T04:48:24.139Z,99378.46
2023-11-30T04:50:52.512Z,99382.28
2023-11-30T04:53:20.400Z,99377.40
2023-11-30T04:55:48.157Z,99377.55
2023-11-30T04:58:15.955Z,99380.95
2023-11-30T05:00:43.704Z,99376.00
2023-11-30T05:03:13.098Z,99372.20
2023-11-30T05:05:41.216Z,99374.92
2023-11-30T05:08:09.354Z,99375.54
2023-11-30T05:10:37.430Z,99375.33
2023-11-30T05:13:05.162Z,99375.90
2023-11-30T05:15:32.931Z,99377.62
2023-11-30T05:18:00.753Z,99380.73
2023-11-30T05:20:29.766Z,99377.80
2023-11-30T05:22:57.469Z,99373.64
2023-11-30T05:25:25.522Z,99374.02
2023-11-30T05:27:53.294Z,99375.27
2023-11-30T05:30:21.621Z,99371.37
2023-11-30T05:32:50.052Z,99364.53
2023-11-30T05:35:18.021Z,99362.02
2023-11-30T05:37:47.236Z,99364.31
2023-11-30T05:40:17.244Z,99364.49
2023-11-30T05:42:44.958Z,99366.02
2023-11-30T05:45:12.801Z,99366.56
2023-11-30T05:47:40.683Z,99368.80
2023-11-30T05:50:09.030Z,99364.55
2023-11-30T05:52:37.086Z,99363.55
2023-11-30T05:55:09.001Z,99361.36
2023-11-30T05:57:38.319Z,99363.60
2023-11-30T06:00:09.677Z,99363.21
2023-11-30T06:02:40.765Z,99364.13
2023-11-30T06:05:08.982Z,99363.73
2023-11-30T06:07:38.680Z,99361.51
2023-11-30T06:10:11.140Z,99358.09
2023-11-30T06:12:40.616Z,99363.83
2023-11-30T06:15:10.839Z,99361.92
2023-11-30T06:17:38.998Z,99363.23
2023-11-30T06:20:11.762Z,99371.55
2023-11-30T06:22:41.242Z,99372.70
2023-11-30T06:25:10.247Z,99374.08
2023-11-30T06:27:38.358Z,99374.37
2023-11-30T06:30:07.115Z,99377.15
2023-11-30T06:32:35.103Z,99381.48
2023-11-30T06:35:03.535Z,99386.66
2023-11-30T06:37:31.439Z,99382.84
2023-11-30T06:39:59.278Z,99379.46
2023-11-30T06:42:27.059Z,99377.27
2023-11-30T06:44:54.966Z,99375.34
2023-11-30T06:47:22.714Z,99382.80
2023-11-30T06:49:51.329Z,99382.70
2023-11-30T06:52:19.419Z,99383.30
2023-11-30T06:54:47.221Z,99386.86
2023-11-30T06:57:15.229Z,99384.45
2023-11-30T06:59:44.470Z,99383.90
2023-11-30T07:02:12.470Z,99383.98
2023-11-30T07:04:40.563Z,99381.83
2023-11-30T07:07:10.090Z,99387.45
2023-11-30T07:09:40.808Z,99388.66
2023-11-30T07:12:09.342Z,99389.35
2023-11-30T07:14:50.471Z,99390.67
2023-11-30T07:17:24.587Z,99396.16
2023-11-30T07:19:53.276Z,99396.90
2023-11-30T07:22:23.398Z,99400.07
2023-11-30T07:24:52.079Z,99401.91
2023-11-30T07:27:20.504Z,99411.48
2023-11-30T07:29:48.541Z,99407.85
2023-11-30T07:32:16.929Z,99404.73
2023-11-30T07:34:45.799Z,99410.30
2023-11-30T07:37:17.113Z,99413.21
2023-11-30T07:39:45.466Z,99419.17
2023-11-30T07:42:25.881Z,99421.20
2023-11-30T07:45:03.220Z,99423.81
2023-11-30T07:47:31.978Z,99424.88
2023-11-30T07:50:00.546Z,99429.45
2023-11-30T07:52:28.481Z,99431.02
2023-11-30T07:54:56.257Z,99431.23
2023-11-30T07:57:25.029Z,99435.10
2023-11-30T07:59:52.941Z,99439.59
2023-11-30T08:02:20.723Z,99437.41
2023-11-30T08:04:48.540Z,99439.59
2023-11-30T08:07:16.354Z,99441.36
2023-11-30T08:09:44.122Z,99438.63
2023-11-30T08:12:12.007Z,99437.34
2023-11-30T08:14:40.053Z,99436.92
2023-11-30T08:17:07.977Z,99438.08
2023-11-30T08:19:35.822Z,99439.33
2023-11-30T08:22:03.666Z,99439.02
2023-11-30T08:24:31.538Z,99435.96
2023-11-30T08:27:00.748Z,99439.35
2023-11-30T08:29:28.530Z,99441.02
2023-11-30T08:31:56.907Z,99440.84
2023-11-30T08:34:24.790Z,99439.73
2023-11-30T08:36:52.563Z,99438.23
2023-11-30T08:39:24.707Z,99441.08
2023-11-30T08:41:54.480Z,99448.23
2023-11-30T08:44:24.070Z,99446.93
2023-11-30T08:46:52.131Z,99445.11
2023-11-30T08:49:20.139Z,99446.40
2023-11-30T08:51:48.019Z,99443.27
2023-11-30T08:54:15.861Z,99441.77
2023-11-30T08:56:43.703Z,99438.76
2023-11-30T08:59:11.590Z,99440.36
2023-11-30T09:01:39.638Z,99438.56
2023-11-30T09:04:09.893Z,99444.09
2023-11-30T09:06:37.996Z,99446.04
2023-11-30T09:09:05.886Z,99443.50
2023-11-30T09:11:35.221Z,99440.78
2023-11-30T09:14:03.456Z,99435.98
2023-11-30T09:16:31.347Z,99435.27
2023-11-30T09:18:59.150Z,99435.89
2023-11-30T09:21:28.150Z,99431.12
2023-11-30T09:23:57.178Z,99430.81
2023-11-30T09:26:25.099Z,99426.22
2023-11-30T09:28:52.997Z,99425.71
2023-11-30T09:31:21.422Z,99426.19
2023-11-30T09:50:03.995Z,99405.36
2023-11-30T09:52:32.973Z,99403.55
2023-11-30T09:55:00.836Z,99404.17
2023-11-30T09:57:28.607Z,99403.63
2023-11-30T09:59:56.468Z,99400.22
2023-11-30T10:02:25.368Z,99398.42
2023-11-30T10:04:53.254Z,99389.95
2023-11-30T10:07:22.126Z,99389.50
2023-11-30T10:09:50.033Z,99383.32
2023-11-30T10:12:21.232Z,99381.70
2023-11-30T10:14:49.137Z,99380.73
2023-11-30T10:17:17.437Z,99379.95
2023-11-30T10:19:45.347Z,99384.56
2023-11-30T10:22:13.727Z,99377.80
2023-11-30T10:24:41.504Z,99375.56
2023-11-30T10:27:11.604Z,99377.68
2023-11-30T10:29:43.128Z,99378.65
2023-11-30T10:32:14.287Z,99377.80
2023-11-30T10:34:47.955Z,99379.16
2023-11-30T10:37:21.098Z,99378.59
2023-11-30T10:40:01.699Z,99372.34
2023-11-30T10:42:33.559Z,99372.58
2023-11-30T10:45:04.571Z,99372.63
2023-11-30T10:47:33.078Z,99372.35
2023-11-30T10:50:01.678Z,99371.95
2023-11-30T10:52:30.076Z,99373.64
2023-11-30T10:55:05.159Z,99373.55
2023-11-30T10:57:33.022Z,99375.58
2023-11-30T11:00:01.013Z,99375.30
2023-11-30T11:02:39.510Z,99379.53
2023-11-30T11:05:18.271Z,99374.97
2023-11-30T11:07:50.710Z,99371.45
2023-11-30T11:10:29.685Z,99371.95
2023-11-30T11:13:01.250Z,99369.68
2023-11-30T11:15:30.220Z,99372.85
2023-11-30T11:18:07.039Z,99374.44
2023-11-30T11:20:38.142Z,99370.09
2023-11-30T11:23:09.817Z,99372.60
2023-11-30T11:25:42.220Z,99368.36
2023-11-30T11:28:11.637Z,99368.84
2023-11-30T11:30:44.874Z,99367.92
2023-11-30T11:33:15.833Z,99368.89
2023-11-30T11:35:43.743Z,99367.84
2023-11-30T11:38:11.811Z,99365.30
2023-11-30T11:40:40.889Z,99360.97
2023-11-30T11:43:09.438Z,99363.45
2023-11-30T11:45:42.306Z,99357.31
2023-11-30T11:48:12.062Z,99358.31
2023-11-30T11:50:39.977Z,99359.16
2023-11-30T11:53:07.884Z,99357.44
2023-11-30T11:55:36.203Z,99352.45
2023-11-30T11:58:03.990Z,99357.44
2023-11-30T12:00:31.870Z,99352.50
2023-11-30T12:03:07.527Z,99352.05
2023-11-30T12:05:35.566Z,99350.78
2023-11-30T12:08:04.374Z,99346.66
2023-11-30T12:10:48.168Z,99345.80
2023-11-30T12:13:16.300Z,99348.73
2023-11-30T12:15:45.996Z,99348.70
2023-11-30T12:18:14.982Z,99349.33
2023-11-30T12:20:44.477Z,99344.20
2023-11-30T12:23:13.853Z,99347.48
2023-11-30T12:25:41.720Z,99344.29
2023-11-30T12:28:09.541Z,99341.01
2023-11-30T12:30:37.417Z,99343.35
2023-11-30T12:33:05.243Z,99345.95
2023-11-30T12:35:35.593Z,99344.96
2023-11-30T12:38:03.972Z,99340.74
2023-11-30T12:40:31.734Z,99343.08
2023-11-30T12:42:59.969Z,99340.48
2023-11-30T12:45:28.791Z,99342.70
2023-11-30T12:47:57.075Z,99343.02
2023-11-30T12:50:25.057Z,99345.77
2023-11-30T12:52:53.071Z,99341.42
2023-11-30T12:55:21.087Z,99339.70
2023-11-30T12:57:48.967Z,99339.34
2023-11-30T13:00:21.893Z,99333.52
2023-11-30T13:02:49.971Z,99333.02
2023-11-30T13:05:18.043Z,99330.58
2023-11-30T13:07:46.535Z,99327.10
2023-11-30T13:10:14.473Z,99326.95
2023-11-30T13:12:43.093Z,99329.23
2023-11-30T13:15:12.928Z,99325.92
2023-11-30T13:17:41.490Z,99325.70
2023-11-30T13:20:14.471Z,99329.31
2023-11-30T13:22:45.327Z,99329.23
2023-11-30T13:25:15.243Z,99330.41
2023-11-30T13:27:47.661Z,99331.77
2023-11-30T13:30:18.595Z,99328.30
2023-11-30T13:32:47.748Z,99326.20
2023-11-30T13:35:16.035Z,99323.76
2023-11-30T13:37:44.189Z,99321.10
2023-11-30T13:40:12.441Z,99319.51
2023-11-30T13:42:40.448Z,99316.54
2023-11-30T13:45:08.778Z,99313.20
2023-11-30T13:47:36.673Z,99315.00
2023-11-30T13:50:08.303Z,99314.52
2023-11-30T13:52:40.315Z,99314.20
2023-11-30T13:55:08.145Z,99308.18
2023-11-30T13:57:37.021Z,99311.45
2023-11-30T14:00:06.875Z,99311.77
2023-11-30T14:02:36.860Z,99310.75
2023-11-30T14:05:06.235Z,99304.99
2023-11-30T14:07:34.901Z,99302.27
2023-11-30T14:10:03.302Z,99301.08
2023-11-30T14:12:31.162Z,99298.91
2023-11-30T14:14:59.023Z,99297.31
2023-11-30T14:17:26.886Z,99299.11
2023-11-30T14:19:54.665Z,99303.30
2023-11-30T14:22:22.807Z,99296.84
2023-11-30T14:24:50.724Z,99292.59
2023-11-30T14:27:18.993Z,99298.11
2023-11-30T14:29:46.739Z,99303.52
2023-11-30T14:32:14.483Z,99303.30
2023-11-30T14:34:42.321Z,99299.89
2023-11-30T14:37:10.039Z,99302.48
2023-11-30T14:39:37.952Z,99303.14
2023-11-30T14:42:06.921Z,99304.79
2023-11-30T14:44:36.168Z,99305.11
2023-11-30T14:47:11.035Z,99309.00
2023-11-30T14:49:39.227Z,99308.02
2023-11-30T14:52:07.616Z,99308.02
2023-11-30T14:54:35.935Z,99312.73
2023-11-30T14:57:07.454Z,99309.88
2023-11-30T14:59:35.761Z,99309.38
2023-11-30T15:02:04.391Z,99308.30
2023-11-30T15:04:32.773Z,99304.61
2023-11-30T15:07:01.316Z,99305.58
2023-11-30T15:09:29.676Z,99302.47
2023-11-30T15:11:57.655Z,99301.04
2023-11-30T15:14:25.567Z,99299.61
2023-11-30T15:16:55.670Z,99300.55
2023-11-30T15:19:23.520Z,99299.52
2023-11-30T15:21:51.536Z,99301.25
2023-11-30T15:24:19.615Z,99299.44
2023-11-30T15:26:48.769Z,99300.48
2023-11-30T15:29:17.806Z,99304.15
2023-11-30T15:31:45.681Z,99303.42
2023-11-30T15:34:13.614Z,99302.67
2023-11-30T15:36:43.079Z,99302.09
2023-11-30T15:39:18.177Z,99297.63
2023-11-30T15:41:51.258Z,99292.98
2023-11-30T15:44:19.144Z,99290.30
2023-11-30T15:46:47.414Z,99288.07
2023-11-30T15:49:15.831Z,99288.01
2023-11-30T15:51:44.093Z,99287.02
2023-11-30T15:54:11.966Z,99287.06
2023-11-30T15:56:39.785Z,99288.69
2023-11-30T15:59:07.600Z,99285.77
2023-11-30T16:01:35.473Z,99290.48
2023-11-30T16:04:04.399Z,99288.34
2023-11-30T16:06:34.712Z,99299.33
2023-11-30T16:09:03.958Z,99303.98
2023-11-30T16:11:31.845Z,99312.23
2023-11-30T16:13:59.848Z,99309.30
2023-11-30T16:16:28.931Z,99307.16
2023-11-30T16:18:58.241Z,99316.90
2023-11-30T16:21:28.541Z,99308.08
2023-11-30T16:23:56.711Z,99306.54
2023-11-30T16:26:27.594Z,99305.07
2023-11-30T16:28:55.446Z,99304.98
2023-11-30T16:31:23.270Z,99305.14
2023-11-30T16:33:52.733Z,99305.64
2023-11-30T16:36:21.111Z,99297.23
2023-11-30T16:38:49.038Z,99299.20
2023-11-30T16:41:18.268Z,99296.11
2023-11-30T16:43:46.377Z,99296.14
2023-11-30T16:46:14.345Z,99298.36
2023-11-30T16:48:45.166Z,99303.50
2023-11-30T16:51:13.317Z,99302.45
2023-11-30T16:53:41.151Z,99299.48
2023-11-30T16:56:09.947Z,99296.48
2023-11-30T16:58:37.738Z,99291.34
2023-11-30T17:01:08.466Z,99292.04
2023-11-30T17:03:36.343Z,99296.59
2023-11-30T17:06:04.851Z,99298.00
2023-11-30T17:08:32.799Z,99293.92
2023-11-30T17:11:00.837Z,99290.86
2023-11-30T17:13:28.714Z,99287.56
2023-11-30T17:15:57.279Z,99287.35
2023-11-30T17:18:25.464Z,99284.30
2023-11-30T17:20:53.384Z,99281.30
2023-11-30T17:23:21.266Z,99286.49
2023-11-30T17:25:49.123Z,99280.31
2023-11-30T17:28:16.970Z,99279.23
2023-11-30T17:30:44.860Z,99279.48
2023-11-30T17:33:13.298Z,99278.21
2023-11-30T17:35:41.815Z,99280.23
2023-11-30T17:38:09.734Z,99277.80
2023-11-30T17:40:37.573Z,99277.04
2023-11-30T17:43:05.447Z,99280.20
2023-11-30T17:45:33.268Z,99277.41
2023-11-30T17:48:04.793Z,99277.98
2023-11-30T17:50:33.149Z,99281.13
2023-11-30T17:53:02.202Z,99283.16
2023-11-30T17:55:31.960Z,99275.98
2023-11-30T17:57:59.762Z,99276.63
2023-11-30T18:00:30.230Z,99277.95
2023-11-30T18:02:59.522Z,99277.48
2023-11-30T18:05:27.449Z,99281.23
2023-11-30T18:07:55.325Z,99285.02
2023-11-30T18:10:23.163Z,99279.17
2023-11-30T18:12:51.068Z,99270.95
2023-11-30T18:15:18.972Z,99271.73
2023-11-30T18:17:46.990Z,99274.00
2023-11-30T18:20:14.900Z,99276.55
2023-11-30T18:25:36.270Z,99276.23
2023-11-30T18:28:04.418Z,99276.23
2023-11-30T18:30:32.175Z,99276.77
2023-11-30T18:33:00.016Z,99276.43
2023-11-30T18:35:27.738Z,99279.91
2023-11-30T18:37:55.617Z,99282.52
2023-11-30T18:40:23.513Z,99280.95
2023-11-30T18:42:53.577Z,99275.33
2023-11-30T18:45:21.711Z,99271.70
2023-11-30T18:47:49.677Z,99268.80
2023-11-30T18:50:17.775Z,99267.17
2023-11-30T18:52:45.571Z,99267.53
2023-11-30T18:55:13.482Z,99266.50
2023-11-30T18:57:41.389Z,99268.54
2023-11-30T19:00:09.645Z,99261.52
2023-11-30T19:02:37.459Z,99268.44
2023-11-30T19:05:08.715Z,99268.89
2023-11-30T19:07:37.188Z,99268.98
2023-11-30T19:10:05.716Z,99261.70
2023-11-30T19:12:33.674Z,99260.40
2023-11-30T19:15:02.172Z,99261.55
2023-11-30T19:17:30.102Z,99252.42
2023-11-30T19:19:57.933Z,99252.74
2023-11-30T19:22:26.862Z,99248.59
2023-11-30T19:24:55.037Z,99244.51
2023-11-30T19:27:23.449Z,99243.70
2023-11-30T19:29:52.569Z,99245.84
2023-11-30T19:32:20.776Z,99240.19
2023-11-30T19:34:48.752Z,99236.30
2023-11-30T19:37:16.606Z,99236.27
2023-11-30T19:39:44.476Z,99236.84
2023-11-30T19:42:12.349Z,99230.61
2023-11-30T19:44:40.642Z,99225.14
2023-11-30T19:47:09.217Z,99224.23
2023-11-30T19:49:37.043Z,99219.15
2023-11-30T19:52:05.113Z,99220.20
2023-11-30T19:54:32.969Z,99221.83
2023-11-30T19:57:00.769Z,99221.02
2023-11-30T19:59:28.603Z,99219.69
2023-11-30T20:01:58.609Z,99217.92
2023-11-30T20:04:26.585Z,99213.61
2023-11-30T20:06:54.429Z,99207.06
2023-11-30T20:09:24.226Z,99208.70
2023-11-30T20:11:52.081Z,99209.95
2023-11-30T20:14:19.930Z,99211.60
2023-11-30T20:16:47.915Z,99211.75
2023-11-30T20:19:16.266Z,99207.91
2023-11-30T20:21:44.288Z,99214.21
2023-11-30T20:24:12.135Z,99217.95
2023-11-30T20:26:41.933Z,99220.93
2023-11-30T20:29:09.799Z,99222.33
2023-11-30T20:31:37.817Z,99225.32
2023-11-30T20:34:05.710Z,99224.77
2023-11-30T20:36:33.912Z,99220.58
2023-11-30T20:39:02.105Z,99219.66
2023-11-30T20:41:29.839Z,99219.24
2023-11-30T20:43:57.834Z,99217.02
2023-11-30T20:46:25.684Z,99219.27
2023-11-30T20:48:55.322Z,99223.52
2023-11-30T20:51:23.178Z,99221.84
2023-11-30T20:53:51.015Z,99219.00
2023-11-30T20:56:19.063Z,99220.98
2023-11-30T20:58:49.458Z,99218.34
2023-11-30T21:01:18.664Z,99216.70
2023-11-30T21:03:46.874Z,99218.67
2023-11-30T21:06:14.746Z,99217.03
2023-11-30T21:08:42.634Z,99214.64
2023-11-30T21:11:11.605Z,99210.59
2023-11-30T21:13:39.423Z,99206.60
2023-11-30T21:16:07.819Z,99210.41
2023-11-30T21:18:35.741Z,99211.26
2023-11-30T21:21:03.757Z,99211.15
2023-11-30T21:23:31.532Z,99210.52
2023-11-30T21:25:59.211Z,99209.40
2023-11-30T21:28:26.922Z,99201.96
2023-11-30T21:30:54.754Z,99199.77
2023-11-30T21:33:22.502Z,99199.52
2023-11-30T21:35:50.434Z,99196.75
2023-11-30T21:38:18.145Z,99195.02
2023-11-30T21:40:46.543Z,99193.14
2023-11-30T21:43:14.274Z,99193.14
2023-11-30T21:45:42.077Z,99189.14
2023-11-30T21:48:10.362Z,99190.38
2023-11-30T21:50:38.230Z,99193.34
2023-11-30T21:53:06.106Z,99192.89
2023-11-30T21:55:33.881Z,99188.41
2023-11-30T21:58:01.753Z,99185.71
2023-11-30T22:00:29.702Z,99186.61
2023-11-30T22:02:58.010Z,99190.89
2023-11-30T22:05:30.994Z,99192.02
2023-11-30T22:08:04.473Z,99194.58
2023-11-30T22:10:32.254Z,99196.05
2023-11-30T22:13:00.101Z,99201.48
2023-11-30T22:15:27.969Z,99205.48
2023-11-30T22:17:57.660Z,99209.27
2023-11-30T22:20:25.592Z,99210.79
2023-11-30T22:22:53.401Z,99211.83
2023-11-30T22:25:21.950Z,99215.89
2023-11-30T22:27:49.769Z,99218.07
2023-11-30T22:30:17.592Z,99215.88
2023-11-30T22:32:45.469Z,99217.91
2023-11-30T22:35:13.439Z,99215.09
2023-11-30T22:37:41.235Z,99214.27
2023-11-30T22:40:09.581Z,99212.31
2023-11-30T22:42:37.728Z,99214.27
2023-11-30T22:45:06.790Z,99216.59
2023-11-30T22:47:36.616Z,99215.78
2023-11-30T22:50:05.088Z,99221.55
2023-11-30T22:52:32.987Z,99214.72
2023-11-30T22:55:01.593Z,99213.20
2023-11-30T22:57:29.592Z,99213.60
2023-11-30T22:59:57.418Z,99212.75
2023-11-30T23:02:28.153Z,99214.61
2023-11-30T23:04:58.718Z,99217.42
2023-11-30T23:07:26.699Z,99218.75
2023-11-30T23:09:54.442Z,99221.33
2023-11-30T23:12:22.314Z,99223.42
2023-11-30T23:14:50.016Z,99221.73
2023-11-30T23:17:19.561Z,99217.89
2023-11-30T23:19:47.842Z,99215.48
2023-11-30T23:22:15.862Z,99214.57
2023-11-30T23:24:43.885Z,99208.21
2023-11-30T23:27:11.645Z,99213.75
2023-11-30T23:29:41.298Z,99215.92
2023-11-30T23:32:09.072Z,99217.91
2023-11-30T23:34:36.768Z,99218.19
2023-11-30T23:37:04.601Z,99215.33
2023-11-30T23:39:32.510Z,99217.52
2023-11-30T23:42:00.289Z,99208.67
2023-11-30T23:44:27.986Z,99203.40
2023-11-30T23:46:55.771Z,99209.33
2023-11-30T23:49:23.531Z,99208.73
2023-11-30T23:51:51.333Z,99210.52
2023-11-30T23:54:19.151Z,99214.91
2023-11-30T23:56:48.092Z,99210.38
2023-11-30T23:59:15.931Z,99209.97
